sensor_id;sensor_type;location;lat;lon;timestamp;P1;durP1;ratioP1;P2;durP2;ratioP2
80425;SDS011;69766;51.476;5.704;2023-05-24T00:00:59;21.00;;;5.65;;
80425;SDS011;69766;51.476;5.704;2023-05-24T00:03:26;13.88;;;4.13;;
80425;SDS011;69766;51.476;5.704;2023-05-24T00:05:54;18.38;;;4.20;;
80425;SDS011;69766;51.476;5.704;2023-05-24T00:08:22;21.55;;;5.38;;
80425;SDS011;69766;51.476;5.704;2023-05-24T00:10:47;16.50;;;4.25;;
80425;SDS011;69766;51.476;5.704;2023-05-24T00:13:13;14.48;;;4.63;;
80425;SDS011;69766;51.476;5.704;2023-05-24T00:15:40;14.68;;;4.30;;
80425;SDS011;69766;51.476;5.704;2023-05-24T00:18:06;18.15;;;4.60;;
80425;SDS011;69766;51.476;5.704;2023-05-24T00:20:32;16.65;;;4.95;;
80425;SDS011;69766;51.476;5.704;2023-05-24T00:22:57;17.83;;;4.00;;
80425;SDS011;69766;51.476;5.704;2023-05-24T00:25:25;15.00;;;4.25;;
80425;SDS011;69766;51.476;5.704;2023-05-24T00:27:51;15.98;;;4.15;;
80425;SDS011;69766;51.476;5.704;2023-05-24T00:30:17;10.32;;;3.65;;
80425;SDS011;69766;51.476;5.704;2023-05-24T00:32:43;18.90;;;5.28;;
80425;SDS011;69766;51.476;5.704;2023-05-24T00:35:08;16.27;;;4.93;;
80425;SDS011;69766;51.476;5.704;2023-05-24T00:37:34;15.55;;;4.88;;
80425;SDS011;69766;51.476;5.704;2023-05-24T00:40:01;13.50;;;4.25;;
80425;SDS011;69766;51.476;5.704;2023-05-24T00:42:28;16.15;;;4.65;;
80425;SDS011;69766;51.476;5.704;2023-05-24T00:44:53;13.32;;;4.60;;
80425;SDS011;69766;51.476;5.704;2023-05-24T00:47:19;13.95;;;4.57;;
80425;SDS011;69766;51.476;5.704;2023-05-24T00:55:12;16.17;;;4.68;;
80425;SDS011;69766;51.476;5.704;2023-05-24T00:57:37;19.65;;;4.85;;
80425;SDS011;69766;51.476;5.704;2023-05-24T01:00:04;9.00;;;3.95;;
80425;SDS011;69766;51.476;5.704;2023-05-24T01:02:31;14.45;;;4.28;;
80425;SDS011;69766;51.476;5.704;2023-05-24T01:04:57;12.55;;;4.45;;
80425;SDS011;69766;51.476;5.704;2023-05-24T01:07:32;19.45;;;4.45;;
80425;SDS011;69766;51.476;5.704;2023-05-24T01:13:32;13.00;;;4.60;;
80425;SDS011;69766;51.476;5.704;2023-05-24T01:19:04;15.43;;;4.78;;
80425;SDS011;69766;51.476;5.704;2023-05-24T01:34:56;15.20;;;4.28;;
80425;SDS011;69766;51.476;5.704;2023-05-24T01:37:21;20.92;;;4.97;;
80425;SDS011;69766;51.476;5.704;2023-05-24T01:39:47;19.05;;;4.70;;
80425;SDS011;69766;51.476;5.704;2023-05-24T01:42:28;19.52;;;4.82;;
80425;SDS011;69766;51.476;5.704;2023-05-24T03:10:08;24.02;;;5.97;;
80425;SDS011;69766;51.476;5.704;2023-05-24T03:17:02;20.70;;;7.28;;
80425;SDS011;69766;51.476;5.704;2023-05-24T03:45:37;19.30;;;7.05;;
80425;SDS011;69766;51.476;5.704;2023-05-24T04:08:11;23.08;;;6.38;;
80425;SDS011;69766;51.476;5.704;2023-05-24T04:27:59;19.48;;;7.00;;
80425;SDS011;69766;51.476;5.704;2023-05-24T04:34:06;17.67;;;8.32;;
80425;SDS011;69766;51.476;5.704;2023-05-24T04:36:34;21.00;;;6.68;;
80425;SDS011;69766;51.476;5.704;2023-05-24T04:42:25;23.02;;;7.57;;
80425;SDS011;69766;51.476;5.704;2023-05-24T04:44:56;21.30;;;7.57;;
80425;SDS011;69766;51.476;5.704;2023-05-24T04:47:29;29.52;;;8.20;;
80425;SDS011;69766;51.476;5.704;2023-05-24T04:49:55;24.58;;;7.05;;
80425;SDS011;69766;51.476;5.704;2023-05-24T04:52:22;27.02;;;7.57;;
80425;SDS011;69766;51.476;5.704;2023-05-24T04:54:48;23.65;;;7.93;;
80425;SDS011;69766;51.476;5.704;2023-05-24T04:57:15;24.30;;;8.07;;
80425;SDS011;69766;51.476;5.704;2023-05-24T04:59:42;29.23;;;8.05;;
80425;SDS011;69766;51.476;5.704;2023-05-24T05:02:14;25.95;;;7.50;;
80425;SDS011;69766;51.476;5.704;2023-05-24T05:04:40;22.02;;;7.07;;
80425;SDS011;69766;51.476;5.704;2023-05-24T05:07:08;21.58;;;6.78;;
80425;SDS011;69766;51.476;5.704;2023-05-24T05:09:40;24.80;;;7.53;;
80425;SDS011;69766;51.476;5.704;2023-05-24T05:12:06;24.75;;;7.10;;
80425;SDS011;69766;51.476;5.704;2023-05-24T05:14:32;17.27;;;6.38;;
80425;SDS011;69766;51.476;5.704;2023-05-24T05:16:59;23.45;;;6.80;;
80425;SDS011;69766;51.476;5.704;2023-05-24T05:19:27;22.17;;;6.80;;
80425;SDS011;69766;51.476;5.704;2023-05-24T05:21:53;26.42;;;7.18;;
80425;SDS011;69766;51.476;5.704;2023-05-24T05:24:19;24.02;;;6.53;;
80425;SDS011;69766;51.476;5.704;2023-05-24T05:26:45;22.80;;;7.18;;
80425;SDS011;69766;51.476;5.704;2023-05-24T05:29:11;29.52;;;7.70;;
80425;SDS011;69766;51.476;5.704;2023-05-24T05:31:40;18.40;;;6.40;;
80425;SDS011;69766;51.476;5.704;2023-05-24T05:34:06;23.95;;;7.53;;
80425;SDS011;69766;51.476;5.704;2023-05-24T05:36:35;22.75;;;7.18;;
80425;SDS011;69766;51.476;5.704;2023-05-24T05:39:05;22.85;;;7.82;;
80425;SDS011;69766;51.476;5.704;2023-05-24T05:41:38;23.80;;;8.52;;
80425;SDS011;69766;51.476;5.704;2023-05-24T05:44:06;26.88;;;7.65;;
80425;SDS011;69766;51.476;5.704;2023-05-24T05:46:39;22.83;;;7.40;;
80425;SDS011;69766;51.476;5.704;2023-05-24T05:49:10;30.52;;;8.32;;
80425;SDS011;69766;51.476;5.704;2023-05-24T05:51:37;21.50;;;6.93;;
80425;SDS011;69766;51.476;5.704;2023-05-24T05:54:03;31.63;;;8.48;;
80425;SDS011;69766;51.476;5.704;2023-05-24T05:56:30;27.27;;;7.60;;
80425;SDS011;69766;51.476;5.704;2023-05-24T05:58:55;30.75;;;8.68;;
80425;SDS011;69766;51.476;5.704;2023-05-24T06:01:21;20.45;;;7.35;;
80425;SDS011;69766;51.476;5.704;2023-05-24T06:03:47;22.52;;;7.15;;
80425;SDS011;69766;51.476;5.704;2023-05-24T06:06:13;24.90;;;8.35;;
80425;SDS011;69766;51.476;5.704;2023-05-24T06:08:42;20.63;;;7.50;;
80425;SDS011;69766;51.476;5.704;2023-05-24T06:11:08;26.00;;;8.07;;
80425;SDS011;69766;51.476;5.704;2023-05-24T06:13:33;25.77;;;7.95;;
80425;SDS011;69766;51.476;5.704;2023-05-24T06:15:59;29.63;;;7.97;;
80425;SDS011;69766;51.476;5.704;2023-05-24T06:18:25;22.42;;;7.88;;
80425;SDS011;69766;51.476;5.704;2023-05-24T06:21:01;20.67;;;7.65;;
80425;SDS011;69766;51.476;5.704;2023-05-24T06:23:30;29.33;;;7.60;;
80425;SDS011;69766;51.476;5.704;2023-05-24T06:25:57;23.52;;;7.40;;
80425;SDS011;69766;51.476;5.704;2023-05-24T06:28:26;24.33;;;7.60;;
80425;SDS011;69766;51.476;5.704;2023-05-24T06:30:51;20.88;;;7.72;;
80425;SDS011;69766;51.476;5.704;2023-05-24T06:33:20;15.00;;;6.43;;
80425;SDS011;69766;51.476;5.704;2023-05-24T06:35:46;21.23;;;6.40;;
80425;SDS011;69766;51.476;5.704;2023-05-24T06:38:15;19.15;;;6.20;;
80425;SDS011;69766;51.476;5.704;2023-05-24T06:40:41;21.00;;;6.55;;
80425;SDS011;69766;51.476;5.704;2023-05-24T06:43:07;18.70;;;6.25;;
80425;SDS011;69766;51.476;5.704;2023-05-24T06:45:33;19.00;;;5.85;;
80425;SDS011;69766;51.476;5.704;2023-05-24T06:47:59;20.10;;;7.70;;
80425;SDS011;69766;51.476;5.704;2023-05-24T06:50:25;16.08;;;5.95;;
80425;SDS011;69766;51.476;5.704;2023-05-24T06:52:51;20.98;;;6.00;;
80425;SDS011;69766;51.476;5.704;2023-05-24T06:55:17;25.00;;;7.47;;
80425;SDS011;69766;51.476;5.704;2023-05-24T06:57:43;21.15;;;6.38;;
80425;SDS011;69766;51.476;5.704;2023-05-24T07:00:09;21.77;;;6.25;;
80425;SDS011;69766;51.476;5.704;2023-05-24T07:02:39;16.77;;;5.80;;
80425;SDS011;69766;51.476;5.704;2023-05-24T07:05:06;20.45;;;6.65;;
80425;SDS011;69766;51.476;5.704;2023-05-24T07:07:41;21.83;;;7.15;;
80425;SDS011;69766;51.476;5.704;2023-05-24T07:10:08;24.70;;;6.57;;
80425;SDS011;69766;51.476;5.704;2023-05-24T07:12:35;14.65;;;5.88;;
80425;SDS011;69766;51.476;5.704;2023-05-24T07:15:02;18.73;;;5.65;;
80425;SDS011;69766;51.476;5.704;2023-05-24T07:17:34;27.17;;;7.00;;
80425;SDS011;69766;51.476;5.704;2023-05-24T07:20:00;15.82;;;6.25;;
80425;SDS011;69766;51.476;5.704;2023-05-24T07:22:26;20.52;;;5.95;;
80425;SDS011;69766;51.476;5.704;2023-05-24T07:24:53;20.80;;;5.40;;
80425;SDS011;69766;51.476;5.704;2023-05-24T07:27:19;14.55;;;5.38;;
80425;SDS011;69766;51.476;5.704;2023-05-24T07:29:46;20.92;;;6.05;;
80425;SDS011;69766;51.476;5.704;2023-05-24T07:32:14;17.63;;;5.75;;
80425;SDS011;69766;51.476;5.704;2023-05-24T07:34:39;18.15;;;5.53;;
80425;SDS011;69766;51.476;5.704;2023-05-24T07:37:05;18.20;;;5.82;;
80425;SDS011;69766;51.476;5.704;2023-05-24T07:39:31;24.15;;;6.30;;
80425;SDS011;69766;51.476;5.704;2023-05-24T07:41:57;16.90;;;5.75;;
80425;SDS011;69766;51.476;5.704;2023-05-24T07:44:22;18.08;;;5.50;;
80425;SDS011;69766;51.476;5.704;2023-05-24T07:46:48;19.80;;;6.07;;
80425;SDS011;69766;51.476;5.704;2023-05-24T07:49:14;22.80;;;6.10;;
80425;SDS011;69766;51.476;5.704;2023-05-24T07:51:40;16.52;;;5.25;;
80425;SDS011;69766;51.476;5.704;2023-05-24T07:54:06;15.70;;;4.60;;
80425;SDS011;69766;51.476;5.704;2023-05-24T07:56:32;15.18;;;5.05;;
80425;SDS011;69766;51.476;5.704;2023-05-24T07:58:58;20.08;;;5.15;;
80425;SDS011;69766;51.476;5.704;2023-05-24T08:01:32;15.30;;;5.13;;
80425;SDS011;69766;51.476;5.704;2023-05-24T08:04:01;10.98;;;4.25;;
80425;SDS011;69766;51.476;5.704;2023-05-24T08:06:30;16.58;;;5.32;;
80425;SDS011;69766;51.476;5.704;2023-05-24T08:08:56;16.25;;;4.93;;
80425;SDS011;69766;51.476;5.704;2023-05-24T08:11:22;15.50;;;5.10;;
80425;SDS011;69766;51.476;5.704;2023-05-24T08:13:48;16.85;;;5.90;;
80425;SDS011;69766;51.476;5.704;2023-05-24T08:16:14;16.83;;;4.78;;
80425;SDS011;69766;51.476;5.704;2023-05-24T08:18:40;16.17;;;5.75;;
80425;SDS011;69766;51.476;5.704;2023-05-24T08:21:05;14.10;;;5.47;;
80425;SDS011;69766;51.476;5.704;2023-05-24T08:23:32;13.27;;;4.57;;
80425;SDS011;69766;51.476;5.704;2023-05-24T08:25:58;13.40;;;4.90;;
80425;SDS011;69766;51.476;5.704;2023-05-24T08:28:25;17.67;;;4.47;;
80425;SDS011;69766;51.476;5.704;2023-05-24T08:30:51;16.25;;;4.13;;
80425;SDS011;69766;51.476;5.704;2023-05-24T08:33:16;14.35;;;4.18;;
80425;SDS011;69766;51.476;5.704;2023-05-24T08:35:42;16.58;;;4.82;;
80425;SDS011;69766;51.476;5.704;2023-05-24T08:38:08;15.90;;;4.50;;
80425;SDS011;69766;51.476;5.704;2023-05-24T08:40:33;16.95;;;4.25;;
80425;SDS011;69766;51.476;5.704;2023-05-24T08:43:00;12.93;;;3.63;;
80425;SDS011;69766;51.476;5.704;2023-05-24T08:45:28;11.70;;;3.72;;
80425;SDS011;69766;51.476;5.704;2023-05-24T08:47:55;12.43;;;3.53;;
80425;SDS011;69766;51.476;5.704;2023-05-24T08:50:22;10.48;;;3.25;;
80425;SDS011;69766;51.476;5.704;2023-05-24T08:52:48;11.43;;;3.45;;
80425;SDS011;69766;51.476;5.704;2023-05-24T08:55:15;11.73;;;3.50;;
80425;SDS011;69766;51.476;5.704;2023-05-24T08:57:41;12.13;;;3.47;;
80425;SDS011;69766;51.476;5.704;2023-05-24T09:00:12;14.70;;;3.80;;
80425;SDS011;69766;51.476;5.704;2023-05-24T09:02:39;12.52;;;4.05;;
80425;SDS011;69766;51.476;5.704;2023-05-24T09:05:10;16.20;;;4.72;;
80425;SDS011;69766;51.476;5.704;2023-05-24T09:07:38;19.33;;;4.35;;
80425;SDS011;69766;51.476;5.704;2023-05-24T09:10:06;16.95;;;4.35;;
80425;SDS011;69766;51.476;5.704;2023-05-24T09:12:33;13.25;;;4.47;;
80425;SDS011;69766;51.476;5.704;2023-05-24T09:15:02;14.68;;;4.22;;
80425;SDS011;69766;51.476;5.704;2023-05-24T09:17:30;17.55;;;4.72;;
80425;SDS011;69766;51.476;5.704;2023-05-24T09:19:56;14.82;;;4.03;;
80425;SDS011;69766;51.476;5.704;2023-05-24T09:22:26;14.63;;;4.55;;
80425;SDS011;69766;51.476;5.704;2023-05-24T09:24:59;13.60;;;3.70;;
80425;SDS011;69766;51.476;5.704;2023-05-24T09:27:25;13.90;;;4.00;;
80425;SDS011;69766;51.476;5.704;2023-05-24T09:29:51;11.20;;;3.97;;
80425;SDS011;69766;51.476;5.704;2023-05-24T09:32:20;13.57;;;3.38;;
80425;SDS011;69766;51.476;5.704;2023-05-24T09:34:48;9.70;;;3.38;;
80425;SDS011;69766;51.476;5.704;2023-05-24T09:37:19;12.23;;;3.50;;
80425;SDS011;69766;51.476;5.704;2023-05-24T09:39:47;10.07;;;3.47;;
80425;SDS011;69766;51.476;5.704;2023-05-24T09:42:22;12.75;;;3.33;;
80425;SDS011;69766;51.476;5.704;2023-05-24T09:45:00;10.38;;;3.90;;
80425;SDS011;69766;51.476;5.704;2023-05-24T09:47:45;12.55;;;3.88;;
80425;SDS011;69766;51.476;5.704;2023-05-24T09:50:11;9.32;;;3.38;;
80425;SDS011;69766;51.476;5.704;2023-05-24T09:52:38;10.43;;;3.70;;
80425;SDS011;69766;51.476;5.704;2023-05-24T09:55:14;17.35;;;4.50;;
80425;SDS011;69766;51.476;5.704;2023-05-24T09:57:51;13.17;;;3.73;;
80425;SDS011;69766;51.476;5.704;2023-05-24T10:00:27;12.77;;;3.88;;
80425;SDS011;69766;51.476;5.704;2023-05-24T10:03:03;12.77;;;4.30;;
80425;SDS011;69766;51.476;5.704;2023-05-24T10:05:31;16.05;;;3.90;;
80425;SDS011;69766;51.476;5.704;2023-05-24T10:07:57;12.82;;;4.20;;
80425;SDS011;69766;51.476;5.704;2023-05-24T10:10:27;14.93;;;3.85;;
80425;SDS011;69766;51.476;5.704;2023-05-24T10:12:54;14.48;;;3.78;;
80425;SDS011;69766;51.476;5.704;2023-05-24T10:15:22;13.23;;;3.75;;
80425;SDS011;69766;51.476;5.704;2023-05-24T10:17:49;11.82;;;4.07;;
80425;SDS011;69766;51.476;5.704;2023-05-24T10:20:16;12.85;;;3.80;;
80425;SDS011;69766;51.476;5.704;2023-05-24T10:22:42;11.70;;;4.07;;
80425;SDS011;69766;51.476;5.704;2023-05-24T10:25:12;14.73;;;4.20;;
80425;SDS011;69766;51.476;5.704;2023-05-24T10:27:44;14.40;;;3.50;;
80425;SDS011;69766;51.476;5.704;2023-05-24T10:32:47;14.82;;;4.28;;
80425;SDS011;69766;51.476;5.704;2023-05-24T10:35:15;14.98;;;4.45;;
80425;SDS011;69766;51.476;5.704;2023-05-24T10:37:42;11.20;;;3.85;;
80425;SDS011;69766;51.476;5.704;2023-05-24T10:40:18;16.33;;;4.43;;
80425;SDS011;69766;51.476;5.704;2023-05-24T10:42:45;13.95;;;4.53;;
80425;SDS011;69766;51.476;5.704;2023-05-24T10:45:28;20.45;;;5.22;;
80425;SDS011;69766;51.476;5.704;2023-05-24T10:48:00;14.32;;;4.40;;
80425;SDS011;69766;51.476;5.704;2023-05-24T10:50:32;17.02;;;4.82;;
80425;SDS011;69766;51.476;5.704;2023-05-24T10:53:11;15.20;;;4.45;;
80425;SDS011;69766;51.476;5.704;2023-05-24T10:58:21;15.70;;;5.22;;
80425;SDS011;69766;51.476;5.704;2023-05-24T11:00:51;9.23;;;4.40;;
80425;SDS011;69766;51.476;5.704;2023-05-24T11:03:17;13.02;;;4.57;;
80425;SDS011;69766;51.476;5.704;2023-05-24T11:11:27;12.52;;;4.32;;
80425;SDS011;69766;51.476;5.704;2023-05-24T11:13:55;12.50;;;3.60;;
80425;SDS011;69766;51.476;5.704;2023-05-24T11:16:37;12.73;;;4.05;;
80425;SDS011;69766;51.476;5.704;2023-05-24T11:19:29;11.98;;;3.83;;
80425;SDS011;69766;51.476;5.704;2023-05-24T11:21:55;12.77;;;4.38;;
80425;SDS011;69766;51.476;5.704;2023-05-24T11:24:25;12.50;;;3.45;;
80425;SDS011;69766;51.476;5.704;2023-05-24T11:26:51;12.90;;;4.03;;
80425;SDS011;69766;51.476;5.704;2023-05-24T11:29:26;9.63;;;3.70;;
80425;SDS011;69766;51.476;5.704;2023-05-24T11:31:54;17.08;;;4.43;;
80425;SDS011;69766;51.476;5.704;2023-05-24T11:34:25;15.95;;;4.07;;
80425;SDS011;69766;51.476;5.704;2023-05-24T11:36:51;11.43;;;3.85;;
80425;SDS011;69766;51.476;5.704;2023-05-24T11:39:19;12.95;;;3.70;;
80425;SDS011;69766;51.476;5.704;2023-05-24T11:41:47;12.60;;;4.10;;
80425;SDS011;69766;51.476;5.704;2023-05-24T11:44:17;16.17;;;5.00;;
80425;SDS011;69766;51.476;5.704;2023-05-24T11:46:46;10.85;;;3.95;;
80425;SDS011;69766;51.476;5.704;2023-05-24T11:49:12;21.45;;;6.07;;
80425;SDS011;69766;51.476;5.704;2023-05-24T11:51:47;11.43;;;3.83;;
80425;SDS011;69766;51.476;5.704;2023-05-24T11:54:13;12.30;;;3.83;;
80425;SDS011;69766;51.476;5.704;2023-05-24T11:56:42;14.88;;;4.10;;
80425;SDS011;69766;51.476;5.704;2023-05-24T11:59:15;16.45;;;4.32;;
80425;SDS011;69766;51.476;5.704;2023-05-24T12:01:47;13.00;;;4.28;;
80425;SDS011;69766;51.476;5.704;2023-05-24T12:04:13;13.15;;;3.88;;
80425;SDS011;69766;51.476;5.704;2023-05-24T12:06:40;11.70;;;4.43;;
80425;SDS011;69766;51.476;5.704;2023-05-24T12:09:07;11.70;;;4.15;;
80425;SDS011;69766;51.476;5.704;2023-05-24T12:11:38;13.68;;;3.70;;
80425;SDS011;69766;51.476;5.704;2023-05-24T12:14:12;14.23;;;4.50;;
80425;SDS011;69766;51.476;5.704;2023-05-24T12:19:06;16.17;;;4.35;;
80425;SDS011;69766;51.476;5.704;2023-05-24T12:21:32;10.07;;;3.88;;
80425;SDS011;69766;51.476;5.704;2023-05-24T12:24:12;13.05;;;4.30;;
80425;SDS011;69766;51.476;5.704;2023-05-24T12:26:42;12.45;;;4.13;;
80425;SDS011;69766;51.476;5.704;2023-05-24T12:29:12;10.43;;;3.97;;
80425;SDS011;69766;51.476;5.704;2023-05-24T12:31:43;14.77;;;4.32;;
80425;SDS011;69766;51.476;5.704;2023-05-24T12:34:14;13.05;;;4.47;;
80425;SDS011;69766;51.476;5.704;2023-05-24T12:36:40;16.05;;;4.15;;
80425;SDS011;69766;51.476;5.704;2023-05-24T12:39:26;11.98;;;3.45;;
80425;SDS011;69766;51.476;5.704;2023-05-24T12:41:58;17.08;;;4.43;;
80425;SDS011;69766;51.476;5.704;2023-05-24T12:44:35;13.15;;;3.60;;
80425;SDS011;69766;51.476;5.704;2023-05-24T12:47:06;13.88;;;3.75;;
80425;SDS011;69766;51.476;5.704;2023-05-24T12:49:32;12.70;;;3.90;;
80425;SDS011;69766;51.476;5.704;2023-05-24T12:51:58;10.30;;;3.92;;
80425;SDS011;69766;51.476;5.704;2023-05-24T12:54:26;10.95;;;3.38;;
80425;SDS011;69766;51.476;5.704;2023-05-24T12:56:53;11.80;;;3.65;;
80425;SDS011;69766;51.476;5.704;2023-05-24T12:59:19;13.63;;;3.60;;
80425;SDS011;69766;51.476;5.704;2023-05-24T13:01:46;12.13;;;3.95;;
80425;SDS011;69766;51.476;5.704;2023-05-24T13:04:19;15.07;;;4.05;;
80425;SDS011;69766;51.476;5.704;2023-05-24T13:09:12;11.13;;;4.05;;
80425;SDS011;69766;51.476;5.704;2023-05-24T13:11:38;17.50;;;4.47;;
80425;SDS011;69766;51.476;5.704;2023-05-24T13:14:04;12.38;;;4.00;;
80425;SDS011;69766;51.476;5.704;2023-05-24T13:16:30;13.07;;;3.92;;
80425;SDS011;69766;51.476;5.704;2023-05-24T13:18:57;13.13;;;3.78;;
80425;SDS011;69766;51.476;5.704;2023-05-24T13:21:23;11.98;;;3.65;;
80425;SDS011;69766;51.476;5.704;2023-05-24T13:23:49;14.80;;;3.60;;
80425;SDS011;69766;51.476;5.704;2023-05-24T13:26:16;14.45;;;3.85;;
80425;SDS011;69766;51.476;5.704;2023-05-24T13:28:42;14.68;;;3.90;;
80425;SDS011;69766;51.476;5.704;2023-05-24T13:31:08;17.58;;;4.55;;
80425;SDS011;69766;51.476;5.704;2023-05-24T13:33:36;12.68;;;3.22;;
80425;SDS011;69766;51.476;5.704;2023-05-24T13:36:02;18.02;;;3.63;;
80425;SDS011;69766;51.476;5.704;2023-05-24T13:38:27;10.93;;;3.92;;
80425;SDS011;69766;51.476;5.704;2023-05-24T13:40:53;9.93;;;3.83;;
80425;SDS011;69766;51.476;5.704;2023-05-24T13:43:20;12.95;;;4.05;;
80425;SDS011;69766;51.476;5.704;2023-05-24T13:45:46;12.27;;;3.50;;
80425;SDS011;69766;51.476;5.704;2023-05-24T13:48:12;11.50;;;3.55;;
80425;SDS011;69766;51.476;5.704;2023-05-24T13:50:38;14.27;;;4.47;;
80425;SDS011;69766;51.476;5.704;2023-05-24T13:53:04;10.27;;;3.75;;
80425;SDS011;69766;51.476;5.704;2023-05-24T13:55:34;11.00;;;3.83;;
80425;SDS011;69766;51.476;5.704;2023-05-24T13:58:02;16.45;;;3.90;;
80425;SDS011;69766;51.476;5.704;2023-05-24T14:00:29;14.73;;;4.75;;
80425;SDS011;69766;51.476;5.704;2023-05-24T14:02:57;12.85;;;3.97;;
80425;SDS011;69766;51.476;5.704;2023-05-24T14:05:23;12.73;;;3.85;;
80425;SDS011;69766;51.476;5.704;2023-05-24T14:07:49;11.90;;;3.80;;
80425;SDS011;69766;51.476;5.704;2023-05-24T14:10:15;12.80;;;3.55;;
80425;SDS011;69766;51.476;5.704;2023-05-24T14:12:41;10.95;;;3.53;;
80425;SDS011;69766;51.476;5.704;2023-05-24T14:15:07;11.30;;;4.28;;
80425;SDS011;69766;51.476;5.704;2023-05-24T14:17:33;13.32;;;3.50;;
80425;SDS011;69766;51.476;5.704;2023-05-24T14:19:59;13.32;;;3.55;;
80425;SDS011;69766;51.476;5.704;2023-05-24T14:22:25;15.23;;;4.25;;
80425;SDS011;69766;51.476;5.704;2023-05-24T14:24:53;12.75;;;4.35;;
80425;SDS011;69766;51.476;5.704;2023-05-24T14:27:19;14.57;;;4.55;;
80425;SDS011;69766;51.476;5.704;2023-05-24T14:29:44;10.63;;;4.10;;
80425;SDS011;69766;51.476;5.704;2023-05-24T14:32:11;16.92;;;4.90;;
80425;SDS011;69766;51.476;5.704;2023-05-24T14:34:37;15.18;;;4.50;;
80425;SDS011;69766;51.476;5.704;2023-05-24T14:37:02;11.20;;;3.67;;
80425;SDS011;69766;51.476;5.704;2023-05-24T14:39:29;13.52;;;4.00;;
80425;SDS011;69766;51.476;5.704;2023-05-24T14:41:54;14.52;;;4.32;;
80425;SDS011;69766;51.476;5.704;2023-05-24T14:44:21;16.15;;;4.47;;
80425;SDS011;69766;51.476;5.704;2023-05-24T14:46:47;17.27;;;3.90;;
80425;SDS011;69766;51.476;5.704;2023-05-24T14:49:13;13.50;;;4.38;;
80425;SDS011;69766;51.476;5.704;2023-05-24T14:51:39;12.82;;;3.83;;
80425;SDS011;69766;51.476;5.704;2023-05-24T14:54:04;12.23;;;4.05;;
80425;SDS011;69766;51.476;5.704;2023-05-24T14:56:30;20.75;;;4.28;;
80425;SDS011;69766;51.476;5.704;2023-05-24T14:58:57;13.90;;;4.05;;
80425;SDS011;69766;51.476;5.704;2023-05-24T15:01:23;11.10;;;3.83;;
80425;SDS011;69766;51.476;5.704;2023-05-24T15:03:49;8.60;;;3.45;;
80425;SDS011;69766;51.476;5.704;2023-05-24T15:06:15;15.70;;;4.35;;
80425;SDS011;69766;51.476;5.704;2023-05-24T15:08:40;12.45;;;4.15;;
80425;SDS011;69766;51.476;5.704;2023-05-24T15:11:06;11.80;;;4.60;;
80425;SDS011;69766;51.476;5.704;2023-05-24T15:13:32;11.07;;;4.05;;
80425;SDS011;69766;51.476;5.704;2023-05-24T15:15:57;14.90;;;3.72;;
80425;SDS011;69766;51.476;5.704;2023-05-24T15:18:24;14.40;;;3.92;;
80425;SDS011;69766;51.476;5.704;2023-05-24T15:20:53;10.95;;;3.75;;
80425;SDS011;69766;51.476;5.704;2023-05-24T15:23:20;8.77;;;3.67;;
80425;SDS011;69766;51.476;5.704;2023-05-24T15:25:46;12.63;;;3.50;;
80425;SDS011;69766;51.476;5.704;2023-05-24T15:28:12;12.77;;;3.75;;
80425;SDS011;69766;51.476;5.704;2023-05-24T15:30:41;12.93;;;4.03;;
80425;SDS011;69766;51.476;5.704;2023-05-24T15:33:11;15.52;;;3.97;;
80425;SDS011;69766;51.476;5.704;2023-05-24T15:35:37;13.77;;;3.75;;
80425;SDS011;69766;51.476;5.704;2023-05-24T15:38:03;12.38;;;3.33;;
80425;SDS011;69766;51.476;5.704;2023-05-24T15:40:30;12.48;;;3.85;;
80425;SDS011;69766;51.476;5.704;2023-05-24T15:42:56;16.75;;;3.47;;
80425;SDS011;69766;51.476;5.704;2023-05-24T15:45:21;18.05;;;3.67;;
80425;SDS011;69766;51.476;5.704;2023-05-24T15:47:47;14.88;;;3.55;;
80425;SDS011;69766;51.476;5.704;2023-05-24T15:50:13;12.77;;;3.33;;
80425;SDS011;69766;51.476;5.704;2023-05-24T15:52:40;11.63;;;3.80;;
80425;SDS011;69766;51.476;5.704;2023-05-24T15:55:06;15.65;;;3.97;;
80425;SDS011;69766;51.476;5.704;2023-05-24T15:57:33;8.95;;;3.22;;
80425;SDS011;69766;51.476;5.704;2023-05-24T15:59:58;10.55;;;3.38;;
80425;SDS011;69766;51.476;5.704;2023-05-24T16:02:25;11.68;;;3.45;;
80425;SDS011;69766;51.476;5.704;2023-05-24T16:04:51;11.02;;;3.33;;
80425;SDS011;69766;51.476;5.704;2023-05-24T16:07:17;11.10;;;3.63;;
80425;SDS011;69766;51.476;5.704;2023-05-24T16:09:44;13.98;;;4.57;;
80425;SDS011;69766;51.476;5.704;2023-05-24T16:12:10;9.80;;;3.20;;
80425;SDS011;69766;51.476;5.704;2023-05-24T16:14:36;11.40;;;3.30;;
80425;SDS011;69766;51.476;5.704;2023-05-24T16:17:02;13.35;;;4.32;;
80425;SDS011;69766;51.476;5.704;2023-05-24T16:19:28;15.63;;;4.38;;
80425;SDS011;69766;51.476;5.704;2023-05-24T16:21:54;14.20;;;4.40;;
80425;SDS011;69766;51.476;5.704;2023-05-24T16:24:20;10.32;;;3.70;;
80425;SDS011;69766;51.476;5.704;2023-05-24T16:26:47;10.25;;;3.63;;
80425;SDS011;69766;51.476;5.704;2023-05-24T16:29:12;12.68;;;3.50;;
80425;SDS011;69766;51.476;5.704;2023-05-24T16:31:40;15.95;;;4.30;;
80425;SDS011;69766;51.476;5.704;2023-05-24T16:34:06;17.95;;;4.55;;
80425;SDS011;69766;51.476;5.704;2023-05-24T16:36:32;13.50;;;4.03;;
80425;SDS011;69766;51.476;5.704;2023-05-24T16:38:59;13.63;;;3.58;;
80425;SDS011;69766;51.476;5.704;2023-05-24T16:41:25;19.65;;;5.00;;
80425;SDS011;69766;51.476;5.704;2023-05-24T16:43:53;15.07;;;5.20;;
80425;SDS011;69766;51.476;5.704;2023-05-24T16:46:19;17.17;;;5.32;;
80425;SDS011;69766;51.476;5.704;2023-05-24T16:48:45;14.18;;;4.47;;
80425;SDS011;69766;51.476;5.704;2023-05-24T16:51:11;12.27;;;4.88;;
80425;SDS011;69766;51.476;5.704;2023-05-24T16:53:37;14.32;;;4.95;;
80425;SDS011;69766;51.476;5.704;2023-05-24T16:56:04;13.68;;;4.72;;
80425;SDS011;69766;51.476;5.704;2023-05-24T16:58:29;13.45;;;5.50;;
80425;SDS011;69766;51.476;5.704;2023-05-24T17:00:55;17.00;;;4.28;;
80425;SDS011;69766;51.476;5.704;2023-05-24T17:03:23;12.90;;;4.47;;
80425;SDS011;69766;51.476;5.704;2023-05-24T17:05:53;15.63;;;4.28;;
80425;SDS011;69766;51.476;5.704;2023-05-24T17:08:19;17.67;;;4.35;;
80425;SDS011;69766;51.476;5.704;2023-05-24T17:10:45;13.27;;;4.07;;
80425;SDS011;69766;51.476;5.704;2023-05-24T17:13:13;14.40;;;4.15;;
80425;SDS011;69766;51.476;5.704;2023-05-24T17:15:39;11.77;;;4.20;;
80425;SDS011;69766;51.476;5.704;2023-05-24T17:18:05;14.20;;;3.78;;
80425;SDS011;69766;51.476;5.704;2023-05-24T17:20:31;12.45;;;4.35;;
80425;SDS011;69766;51.476;5.704;2023-05-24T17:23:00;10.25;;;3.35;;
80425;SDS011;69766;51.476;5.704;2023-05-24T17:25:26;13.45;;;3.67;;
80425;SDS011;69766;51.476;5.704;2023-05-24T17:27:52;11.82;;;4.18;;
80425;SDS011;69766;51.476;5.704;2023-05-24T17:30:20;12.98;;;3.45;;
80425;SDS011;69766;51.476;5.704;2023-05-24T17:32:47;13.88;;;3.95;;
80425;SDS011;69766;51.476;5.704;2023-05-24T17:35:13;11.50;;;3.92;;
80425;SDS011;69766;51.476;5.704;2023-05-24T17:37:41;9.70;;;3.58;;
80425;SDS011;69766;51.476;5.704;2023-05-24T17:40:07;8.52;;;3.20;;
80425;SDS011;69766;51.476;5.704;2023-05-24T17:42:34;11.48;;;3.97;;
80425;SDS011;69766;51.476;5.704;2023-05-24T17:45:01;8.82;;;3.17;;
80425;SDS011;69766;51.476;5.704;2023-05-24T17:47:28;10.68;;;3.30;;
80425;SDS011;69766;51.476;5.704;2023-05-24T17:49:54;12.80;;;3.53;;
80425;SDS011;69766;51.476;5.704;2023-05-24T17:52:20;16.75;;;4.10;;
80425;SDS011;69766;51.476;5.704;2023-05-24T17:54:45;10.73;;;3.92;;
80425;SDS011;69766;51.476;5.704;2023-05-24T17:57:13;16.30;;;4.05;;
80425;SDS011;69766;51.476;5.704;2023-05-24T17:59:40;12.43;;;3.75;;